DFFD

Ouagadougou Airport

Ouagadougou, Burkina Faso
METAR DFFD 201900Z 26004KT 9999 TS FEW020 FEW033CB 31/20 Q1010 TEMPO 4000 TSRA
Observed Flight Rules
Oct-20 @ 19:00 UTC (21 minutes ago) Visual Flight Rules
Wind Visibility Clouds Conditions
260° at 4 knots 10,000+ meters
  • Few at 2,000' AGL
  • Few at 3,300' AGL
  • Thunderstorm
Temperatures Readings
Current 31°C / 88°F
Dewpoint 20°C / 68°F
Humidity 52%
Altimeter 29.82" Hg
Pressure 1010 hPa
Elevation 306
METAR DFFD 201900Z 26004KT 9999 TS FEW020 FEW033CB 31/20 Q1010 TEMPO 4000 TSRA
Observed Flight Rules
Oct-20 @ 19:00 UTC
(21 minutes ago)
VFR
Wind Visibility
260° at 4 knots 10,000+ meters
Clouds
  • Few at 2,000' AGL
  • Few at 3,300' AGL
Conditions
  • Thunderstorm
Temperature Dewpoint
31°C / 88°F 20°C / 68°F
Humidity Altimeter Pressure
52% 29.82" Hg 1010 hPa